createdAt,value
2019-04-06T00:01:15.342Z,90.01
2019-04-06T00:03:45.868Z,89.50
2019-04-06T00:06:16.386Z,90.36
2019-04-06T00:08:46.925Z,90.25
2019-04-06T00:11:17.486Z,90.38
2019-04-06T00:13:47.961Z,90.48
2019-04-06T00:16:18.534Z,90.59
2019-04-06T00:18:48.915Z,90.49
2019-04-06T00:21:19.422Z,90.40
2019-04-06T00:23:49.923Z,90.24
2019-04-06T00:26:20.391Z,90.34
2019-04-06T00:28:50.905Z,91.16
2019-04-06T00:31:49.594Z,90.70
2019-04-06T00:34:20.294Z,90.49
2019-04-06T00:36:50.835Z,90.62
2019-04-06T00:39:21.349Z,90.85
2019-04-06T00:41:51.841Z,91.15
2019-04-06T00:44:22.449Z,90.99
2019-04-06T00:46:53.010Z,91.21
2019-04-06T00:49:23.599Z,91.50
2019-04-06T00:51:54.131Z,91.57
2019-04-06T00:54:24.675Z,91.70
2019-04-06T00:56:55.120Z,91.42
2019-04-06T00:59:25.707Z,91.18
2019-04-06T01:01:56.296Z,91.16
2019-04-06T01:04:26.862Z,91.17
2019-04-06T01:06:57.368Z,91.30
2019-04-06T01:09:27.865Z,91.53
2019-04-06T01:11:58.406Z,91.20
2019-04-06T01:14:29.406Z,91.27
2019-04-06T01:16:59.901Z,91.28
2019-04-06T01:19:30.424Z,91.20
2019-04-06T01:22:01.007Z,91.02
2019-04-06T01:24:31.537Z,90.37
2019-04-06T01:27:02.055Z,90.23
2019-04-06T01:29:32.573Z,90.51
2019-04-06T01:32:03.137Z,91.02
2019-04-06T01:34:33.693Z,91.56
2019-04-06T01:37:04.304Z,91.33
2019-04-06T01:39:34.791Z,91.01
2019-04-06T01:42:05.321Z,90.21
2019-04-06T01:44:35.826Z,90.41
2019-04-06T01:47:06.402Z,90.77
2019-04-06T01:49:36.870Z,90.85
2019-04-06T01:52:07.381Z,91.08
2019-04-06T01:54:37.934Z,91.50
2019-04-06T01:57:08.457Z,91.49
2019-04-06T01:59:38.976Z,92.05
2019-04-06T02:02:22.864Z,92.74
2019-04-06T02:04:53.344Z,93.02
2019-04-06T02:07:23.923Z,93.38
2019-04-06T02:09:54.479Z,93.62
2019-04-06T02:12:24.955Z,93.24
2019-04-06T02:14:55.467Z,93.32
2019-04-06T02:17:26.014Z,93.43
2019-04-06T02:19:56.494Z,93.26
2019-04-06T02:22:26.977Z,93.08
2019-04-06T02:24:57.543Z,93.45
2019-04-06T02:27:28.038Z,93.50
2019-04-06T02:30:16.601Z,93.66
2019-04-06T02:33:05.072Z,93.78
2019-04-06T02:36:03.788Z,93.80
2019-04-06T02:38:45.306Z,93.56
2019-04-06T02:41:40.497Z,93.82
2019-04-06T02:44:11.055Z,93.62
2019-04-06T02:46:41.539Z,93.38
2019-04-06T02:49:12.049Z,93.39
2019-04-06T02:51:42.549Z,93.73
2019-04-06T02:54:13.081Z,93.83
2019-04-06T02:56:46.200Z,93.76
2019-04-06T02:59:15.842Z,93.78
2019-04-06T03:01:46.349Z,93.62
2019-04-06T03:04:16.887Z,93.50
2019-04-06T03:06:47.352Z,93.65
2019-04-06T03:09:17.870Z,93.76
2019-04-06T03:11:48.554Z,93.97
2019-04-06T03:14:19.461Z,93.95
2019-04-06T03:16:49.935Z,93.67
2019-04-06T03:19:20.468Z,93.49
2019-04-06T03:21:51.183Z,93.39
2019-04-06T03:24:21.672Z,93.87
2019-04-06T03:27:00.716Z,94.11
2019-04-06T03:29:24.458Z,93.96
2019-04-06T03:31:55.004Z,93.86
2019-04-06T03:34:25.503Z,93.78
2019-04-06T03:36:55.979Z,93.71
2019-04-06T03:39:26.438Z,93.85
2019-04-06T03:41:56.946Z,93.93
2019-04-06T03:44:27.433Z,93.83
2019-04-06T03:46:57.889Z,93.78
2019-04-06T03:49:28.533Z,93.86
2019-04-06T03:51:59.060Z,93.78
2019-04-06T03:54:29.536Z,93.60
2019-04-06T03:57:13.169Z,93.30
2019-04-06T03:59:32.258Z,92.92
2019-04-06T04:02:02.728Z,92.78
2019-04-06T04:04:33.276Z,93.01
2019-04-06T04:07:03.749Z,93.12
2019-04-06T04:09:34.289Z,93.12
2019-04-06T04:12:04.799Z,93.23
2019-04-06T04:14:35.305Z,92.98
2019-04-06T04:17:05.778Z,93.27
2019-04-06T04:19:36.258Z,93.84
2019-04-06T04:22:06.920Z,94.21
2019-04-06T04:24:37.474Z,94.36
2019-04-06T04:27:07.997Z,94.26
2019-04-06T04:29:38.494Z,94.33
2019-04-06T04:32:09.199Z,94.41
2019-04-06T04:34:39.693Z,94.53
2019-04-06T04:37:10.169Z,94.64
2019-04-06T04:39:40.647Z,94.64
2019-04-06T04:42:11.150Z,94.60
2019-04-06T04:44:41.626Z,94.63
2019-04-06T04:47:12.106Z,94.73
2019-04-06T04:49:42.779Z,94.83
2019-04-06T04:52:13.279Z,94.93
2019-04-06T04:54:43.761Z,95.00
2019-04-06T04:57:14.275Z,95.11
2019-04-06T04:59:44.798Z,95.30
2019-04-06T05:02:15.293Z,95.27
2019-04-06T05:04:45.824Z,95.13
2019-04-06T05:07:16.310Z,95.06
2019-04-06T05:09:46.894Z,94.94
2019-04-06T05:12:17.355Z,94.76
2019-04-06T05:15:19.601Z,94.54
2019-04-06T05:17:50.147Z,94.62
2019-04-06T05:20:20.633Z,94.91
2019-04-06T05:22:51.130Z,95.04
2019-04-06T05:25:21.837Z,95.14
2019-04-06T05:27:53.160Z,95.16
2019-04-06T05:30:23.977Z,95.10
2019-04-06T05:32:54.994Z,94.81
2019-04-06T05:35:25.593Z,95.07
2019-04-06T05:37:56.260Z,95.15
2019-04-06T05:40:26.820Z,95.10
2019-04-06T05:42:57.446Z,94.98
2019-04-06T05:45:28.131Z,94.96
2019-04-06T05:47:58.639Z,94.91
2019-04-06T05:50:29.140Z,94.48
2019-04-06T05:52:59.615Z,94.29
2019-04-06T05:55:30.201Z,94.16
2019-04-06T05:58:04.208Z,94.40
2019-04-06T06:00:33.654Z,94.62
2019-04-06T06:03:04.151Z,94.49
2019-04-06T06:05:34.748Z,94.42
2019-04-06T06:08:05.345Z,94.22
2019-04-06T06:10:38.221Z,94.27
2019-04-06T06:13:08.067Z,94.22
2019-04-06T06:15:38.697Z,94.15
2019-04-06T06:18:09.276Z,94.05
2019-04-06T06:20:39.829Z,93.77
2019-04-06T06:23:10.275Z,93.75
2019-04-06T06:25:40.841Z,93.90
2019-04-06T06:28:14.939Z,94.02
2019-04-06T06:30:43.648Z,94.14
2019-04-06T06:33:14.357Z,94.27
2019-04-06T06:35:47.045Z,94.08
2019-04-06T06:38:17.660Z,93.86
2019-04-06T06:40:48.329Z,94.02
2019-04-06T06:43:19.079Z,94.17
2019-04-06T06:45:49.802Z,93.81
2019-04-06T06:48:20.317Z,93.70
2019-04-06T06:50:50.970Z,93.08
2019-04-06T06:53:21.453Z,91.75
2019-04-06T06:55:53.462Z,92.12
2019-04-06T06:58:25.990Z,91.97
2019-04-06T07:00:56.830Z,92.17
2019-04-06T07:03:27.336Z,92.35
2019-04-06T07:05:57.838Z,92.12
2019-04-06T07:08:28.343Z,90.48
2019-04-06T07:10:58.829Z,90.20
2019-04-06T07:13:29.297Z,89.81
2019-04-06T07:15:59.922Z,89.30
2019-04-06T07:18:30.374Z,89.31
2019-04-06T07:21:00.844Z,89.87
2019-04-06T07:23:31.412Z,89.87
2019-04-06T07:26:01.889Z,89.71
2019-04-06T07:28:38.434Z,89.61
2019-04-06T07:31:04.669Z,89.29
2019-04-06T07:33:35.218Z,89.56
2019-04-06T07:36:05.858Z,89.60
2019-04-06T07:38:37.943Z,89.57
2019-04-06T07:41:08.623Z,89.35
2019-04-06T07:43:39.190Z,89.31
2019-04-06T07:46:09.765Z,89.47
2019-04-06T07:48:40.274Z,89.55
2019-04-06T07:51:10.810Z,89.57
2019-04-06T07:53:41.334Z,89.66
2019-04-06T07:56:11.829Z,89.61
2019-04-06T07:58:48.880Z,89.29
2019-04-06T08:01:14.524Z,88.81
2019-04-06T08:03:45.035Z,89.01
2019-04-06T08:06:15.511Z,88.77
2019-04-06T08:08:46.034Z,87.17
2019-04-06T08:11:16.657Z,86.80
2019-04-06T08:13:47.197Z,85.66
2019-04-06T08:16:17.898Z,85.58
2019-04-06T08:18:48.420Z,85.38
2019-04-06T08:21:19.755Z,84.66
2019-04-06T08:23:50.526Z,85.19
2019-04-06T08:26:21.038Z,85.41
2019-04-06T08:29:00.304Z,84.96
2019-04-06T08:31:23.773Z,85.02
2019-04-06T08:33:54.264Z,84.62
2019-04-06T08:36:24.827Z,84.42
2019-04-06T08:38:55.927Z,83.44
2019-04-06T08:41:26.418Z,83.88
2019-04-06T08:43:56.900Z,83.29
2019-04-06T08:46:27.491Z,83.42
2019-04-06T08:48:57.939Z,83.41
2019-04-06T08:51:28.591Z,83.32
2019-04-06T08:53:59.237Z,83.42
2019-04-06T08:56:29.929Z,83.22
2019-04-06T08:59:10.942Z,82.99
2019-04-06T09:01:32.791Z,81.73
2019-04-06T09:04:03.344Z,80.49
2019-04-06T09:06:33.816Z,79.39
2019-04-06T09:09:05.947Z,80.09
2019-04-06T09:11:36.548Z,80.29
2019-04-06T09:14:07.198Z,80.83
2019-04-06T09:16:37.779Z,80.61
2019-04-06T09:19:08.617Z,80.96
2019-04-06T09:21:39.078Z,80.61
2019-04-06T09:24:09.637Z,79.87
2019-04-06T09:26:40.150Z,78.82
2019-04-06T09:29:21.848Z,78.63
2019-04-06T09:31:42.987Z,78.31
2019-04-06T09:34:13.547Z,76.79
2019-04-06T09:36:44.089Z,76.04
2019-04-06T09:39:14.855Z,74.75
2019-04-06T09:41:45.406Z,73.74
2019-04-06T09:44:24.615Z,72.88
2019-04-06T09:47:04.395Z,73.04
2019-04-06T09:49:51.961Z,73.75
2019-04-06T09:52:41.381Z,74.45
2019-04-06T09:55:33.198Z,74.59
2019-04-06T09:58:11.313Z,73.13
2019-04-06T10:01:00.766Z,72.92
2019-04-06T10:03:47.761Z,73.00
2019-04-06T10:06:52.641Z,73.23
2019-04-06T10:09:44.904Z,72.35
2019-04-06T10:12:33.241Z,72.50
2019-04-06T10:15:26.209Z,71.82
2019-04-06T10:18:12.610Z,70.31
2019-04-06T10:21:20.269Z,70.13
2019-04-06T10:24:10.369Z,68.69
2019-04-06T10:27:05.800Z,70.05
2019-04-06T10:29:54.462Z,68.85
2019-04-06T10:32:46.742Z,69.79
2019-04-06T10:35:34.947Z,69.73
2019-04-06T10:38:23.006Z,70.27
2019-04-06T10:41:15.574Z,68.75
2019-04-06T10:44:10.823Z,67.69
2019-04-06T10:47:09.849Z,68.21
2019-04-06T10:49:59.231Z,69.67
2019-04-06T10:52:45.469Z,68.52
2019-04-06T10:55:37.628Z,68.51
2019-04-06T10:58:42.510Z,67.02
2019-04-06T11:01:30.606Z,66.29
2019-04-06T11:04:14.872Z,67.15
2019-04-06T11:07:07.040Z,66.74
2019-04-06T11:09:53.194Z,67.59
2019-04-06T11:12:42.591Z,66.47
2019-04-06T11:15:32.033Z,68.09
2019-04-06T11:18:30.656Z,67.57
2019-04-06T11:21:13.881Z,67.65
2019-04-06T11:23:57.021Z,68.50
2019-04-06T11:27:01.638Z,67.73
2019-04-06T11:29:57.779Z,68.07
2019-04-06T11:32:47.198Z,67.62
2019-04-06T11:35:45.533Z,67.32
2019-04-06T11:38:35.085Z,68.42
2019-04-06T11:41:28.420Z,68.15
2019-04-06T11:44:17.845Z,67.27
2019-04-06T11:47:15.341Z,65.33
2019-04-06T11:50:04.750Z,65.20
2019-04-06T11:52:41.193Z,65.33
2019-04-06T11:55:36.798Z,62.77
2019-04-06T11:58:29.270Z,62.45
2019-04-06T12:01:30.783Z,58.76
2019-04-06T12:04:26.075Z,58.95
2019-04-06T12:07:21.813Z,59.28
2019-04-06T12:10:19.623Z,58.23
2019-04-06T12:13:11.932Z,57.73
2019-04-06T12:16:07.362Z,59.70
2019-04-06T12:18:53.181Z,59.36
2019-04-06T12:21:43.019Z,55.03
2019-04-06T12:24:50.660Z,55.95
2019-04-06T12:27:43.446Z,56.83
2019-04-06T12:30:39.189Z,55.28
2019-04-06T12:33:22.203Z,53.19
2019-04-06T12:36:08.194Z,53.10
2019-04-06T12:39:04.303Z,50.64
2019-04-06T12:41:46.864Z,45.81
2019-04-06T12:44:36.841Z,44.08
2019-04-06T12:47:35.228Z,40.51
2019-04-06T12:50:31.584Z,38.48
2019-04-06T12:53:24.000Z,37.14
2019-04-06T12:56:12.200Z,34.66
2019-04-06T12:59:01.836Z,36.26
2019-04-06T13:01:53.913Z,33.46
2019-04-06T13:04:42.818Z,32.32
2019-04-06T13:07:41.301Z,33.00
2019-04-06T13:10:38.385Z,32.64
2019-04-06T13:13:27.738Z,31.51
2019-04-06T13:16:16.529Z,31.86
2019-04-06T13:19:06.745Z,32.59
2019-04-06T13:21:45.221Z,31.40
2019-04-06T13:24:37.616Z,30.50
2019-04-06T13:27:25.977Z,28.23
2019-04-06T13:30:14.287Z,31.51
2019-04-06T13:33:02.329Z,29.56
2019-04-06T13:35:54.372Z,27.72
2019-04-06T13:38:33.358Z,28.70
2019-04-06T13:41:21.700Z,29.17
2019-04-06T13:44:22.338Z,30.20
2019-04-06T13:47:10.418Z,28.98
2019-04-06T13:49:58.738Z,28.33
2019-04-06T13:52:49.262Z,27.31
2019-04-06T13:55:30.303Z,29.19
2019-04-06T13:58:18.360Z,29.22
2019-04-06T14:01:16.911Z,27.78
2019-04-06T14:04:03.879Z,29.49
2019-04-06T14:06:53.579Z,27.82
2019-04-06T14:09:44.786Z,27.91
2019-04-06T14:12:37.307Z,27.02
2019-04-06T14:15:21.871Z,28.17
2019-04-06T14:18:05.694Z,28.51
2019-04-06T14:20:58.036Z,28.91
2019-04-06T14:23:50.484Z,26.97
2019-04-06T14:26:39.282Z,27.36
2019-04-06T14:29:15.975Z,28.91
2019-04-06T14:32:16.080Z,28.12
2019-04-06T14:35:06.064Z,29.24
2019-04-06T14:37:48.683Z,27.76
2019-04-06T14:40:50.324Z,25.91
2019-04-06T14:43:33.824Z,26.23
2019-04-06T14:46:22.332Z,28.08
2019-04-06T14:49:22.475Z,31.38
2019-04-06T14:52:07.339Z,34.04
2019-04-06T14:55:06.127Z,36.44
2019-04-06T14:57:55.659Z,37.52
2019-04-06T15:00:44.233Z,38.62
2019-04-06T15:03:33.801Z,39.03
2019-04-06T15:06:26.122Z,38.31
2019-04-06T15:09:09.953Z,36.89
2019-04-06T15:11:59.515Z,35.93
2019-04-06T15:14:59.809Z,35.66
2019-04-06T15:17:48.207Z,35.19
2019-04-06T15:20:30.816Z,36.77
2019-04-06T15:23:18.963Z,36.28
2019-04-06T15:26:00.629Z,36.48
2019-04-06T15:28:48.831Z,35.89
2019-04-06T15:31:28.888Z,36.46
2019-04-06T15:34:26.183Z,37.29
2019-04-06T15:37:18.217Z,36.93
2019-04-06T15:40:10.690Z,39.43
2019-04-06T15:43:00.484Z,38.10
2019-04-06T15:45:44.502Z,38.26
2019-04-06T15:48:36.987Z,39.35
2019-04-06T15:51:20.153Z,37.74
2019-04-06T15:54:12.452Z,40.37
2019-04-06T15:56:55.199Z,41.74
2019-04-06T15:59:56.881Z,41.47
2019-04-06T16:02:46.644Z,42.73
2019-04-06T16:05:31.985Z,41.89
2019-04-06T16:08:27.563Z,43.47
2019-04-06T16:11:23.582Z,42.82
2019-04-06T16:14:13.714Z,41.40
2019-04-06T16:16:59.944Z,41.82
2019-04-06T16:19:43.239Z,43.04
2019-04-06T16:22:41.953Z,43.81
2019-04-06T16:25:19.197Z,45.08
2019-04-06T16:28:11.621Z,46.59
2019-04-06T16:31:04.407Z,45.66
2019-04-06T16:33:43.979Z,46.83
2019-04-06T16:36:34.680Z,46.33
2019-04-06T16:39:34.659Z,46.85
2019-04-06T16:42:20.269Z,47.23
2019-04-06T16:45:08.105Z,47.41
2019-04-06T16:47:50.485Z,47.08
2019-04-06T16:50:32.741Z,48.50
2019-04-06T16:53:40.385Z,47.67
2019-04-06T16:56:18.969Z,48.17
2019-04-06T16:59:17.583Z,48.65
2019-04-06T17:02:01.875Z,49.17
2019-04-06T17:04:47.896Z,51.21
2019-04-06T17:07:28.232Z,52.26
2019-04-06T17:10:20.390Z,53.21
2019-04-06T17:13:15.624Z,54.05
2019-04-06T17:15:57.745Z,54.40
2019-04-06T17:19:02.288Z,55.59
2019-04-06T17:21:47.706Z,55.85
2019-04-06T17:24:32.110Z,56.81
2019-04-06T17:27:40.086Z,57.74
2019-04-06T17:30:25.898Z,57.79
2019-04-06T17:33:13.857Z,58.44
2019-04-06T17:36:02.031Z,59.67
2019-04-06T17:38:39.776Z,60.13
2019-04-06T17:41:29.262Z,59.84
2019-04-06T17:44:17.404Z,59.95
2019-04-06T17:47:04.872Z,61.38
2019-04-06T17:49:53.212Z,61.27
2019-04-06T17:52:30.754Z,60.96
2019-04-06T17:55:16.838Z,61.51
2019-04-06T17:58:05.313Z,62.05
2019-04-06T18:01:01.120Z,62.14
2019-04-06T18:03:49.672Z,62.39
2019-04-06T18:06:38.062Z,63.03
2019-04-06T18:09:28.685Z,63.34
2019-04-06T18:12:30.575Z,63.94
2019-04-06T18:15:01.995Z,63.94
2019-04-06T18:17:32.690Z,64.08
2019-04-06T18:20:03.731Z,64.30
2019-04-06T18:22:34.406Z,63.53
2019-04-06T18:25:05.831Z,63.82
2019-04-06T18:27:36.417Z,63.92
2019-04-06T18:30:08.212Z,63.93
2019-04-06T18:32:43.873Z,64.27
2019-04-06T18:35:14.460Z,63.96
2019-04-06T18:37:50.795Z,63.12
2019-04-06T18:40:23.690Z,63.58
2019-04-06T18:42:54.527Z,63.73
2019-04-06T18:45:26.429Z,64.76
2019-04-06T18:47:57.262Z,64.39
2019-04-06T18:50:34.247Z,64.20
2019-04-06T18:53:00.047Z,64.63
2019-04-06T18:55:30.643Z,65.78
2019-04-06T18:58:10.544Z,65.37
2019-04-06T19:00:33.398Z,65.86
2019-04-06T19:03:12.545Z,66.46
2019-04-06T19:05:36.137Z,67.46
2019-04-06T19:08:06.909Z,66.96
2019-04-06T19:10:38.113Z,66.80
2019-04-06T19:13:08.783Z,67.82
2019-04-06T19:15:39.352Z,67.85
2019-04-06T19:18:10.082Z,67.96
2019-04-06T19:20:40.870Z,68.50
2019-04-06T19:23:11.989Z,69.31
2019-04-06T19:25:43.291Z,69.90
2019-04-06T19:28:14.420Z,69.87
2019-04-06T19:30:45.134Z,70.62
2019-04-06T19:33:23.342Z,70.70
2019-04-06T19:35:48.386Z,70.37
2019-04-06T19:38:19.021Z,70.03
2019-04-06T19:40:49.600Z,69.59
2019-04-06T19:43:20.103Z,70.57
2019-04-06T19:45:51.257Z,71.80
2019-04-06T19:48:22.090Z,72.51
2019-04-06T19:50:53.205Z,72.99
2019-04-06T19:53:23.739Z,73.38
2019-04-06T19:55:54.725Z,73.66
2019-04-06T19:58:25.821Z,73.51
2019-04-06T20:00:56.534Z,73.80
2019-04-06T20:03:34.600Z,74.15
2019-04-06T20:05:59.280Z,74.16
2019-04-06T20:08:29.849Z,73.95
2019-04-06T20:11:00.928Z,74.38
2019-04-06T20:13:31.474Z,74.79
2019-04-06T20:16:02.134Z,74.97
2019-04-06T20:18:32.677Z,75.60
2019-04-06T20:21:03.499Z,75.50
2019-04-06T20:23:33.879Z,75.62
2019-04-06T20:26:04.725Z,76.34
2019-04-06T20:28:35.382Z,75.73
2019-04-06T20:31:05.897Z,75.89
2019-04-06T20:33:46.814Z,76.12
2019-04-06T20:36:09.107Z,76.42
2019-04-06T20:38:40.623Z,76.12
2019-04-06T20:41:11.418Z,76.57
2019-04-06T20:43:42.109Z,76.61
2019-04-06T20:46:12.628Z,76.83
2019-04-06T20:48:43.605Z,76.38
2019-04-06T20:51:14.696Z,76.72
2019-04-06T20:53:45.362Z,76.59
2019-04-06T20:56:16.100Z,76.53
2019-04-06T20:58:46.604Z,76.35
2019-04-06T21:01:17.124Z,76.87
2019-04-06T21:03:59.245Z,76.53
2019-04-06T21:06:20.261Z,76.27
2019-04-06T21:08:50.868Z,76.78
2019-04-06T21:11:21.458Z,77.25
2019-04-06T21:13:51.993Z,76.80
2019-04-06T21:16:22.784Z,77.73
2019-04-06T21:18:53.547Z,77.47
2019-04-06T21:21:24.094Z,78.19
2019-04-06T21:23:55.174Z,77.67
2019-04-06T21:26:26.292Z,77.99
2019-04-06T21:28:56.857Z,78.57
2019-04-06T21:31:27.426Z,78.90
2019-04-06T21:34:09.326Z,79.15
2019-04-06T21:36:30.241Z,79.46
2019-04-06T21:39:00.743Z,79.00
2019-04-06T21:41:31.737Z,79.47
2019-04-06T21:44:02.390Z,79.79
2019-04-06T21:46:32.896Z,79.91
2019-04-06T21:49:03.601Z,80.67
2019-04-06T21:51:34.255Z,81.08
2019-04-06T21:54:04.788Z,80.11
2019-04-06T21:56:35.820Z,79.91
2019-04-06T21:59:06.576Z,80.44
2019-04-06T22:01:37.392Z,80.45
2019-04-06T22:04:08.227Z,80.95
2019-04-06T22:06:39.249Z,80.77
2019-04-06T22:09:13.749Z,81.13
2019-04-06T22:11:44.600Z,81.16
2019-04-06T22:14:15.099Z,81.18
2019-04-06T22:16:45.798Z,81.89
2019-04-06T22:19:16.918Z,81.84
2019-04-06T22:21:47.988Z,82.13
2019-04-06T22:24:18.729Z,81.97
2019-04-06T22:26:49.653Z,82.17
2019-04-06T22:29:20.683Z,82.15
2019-04-06T22:31:51.714Z,82.43
2019-04-06T22:34:34.464Z,82.39
2019-04-06T22:36:55.931Z,82.57
2019-04-06T22:39:27.034Z,82.55
2019-04-06T22:41:57.504Z,82.58
2019-04-06T22:44:27.856Z,82.79
2019-04-06T22:46:58.890Z,83.26
2019-04-06T22:49:29.476Z,83.37
2019-04-06T22:51:59.945Z,83.71
2019-04-06T22:54:30.513Z,83.47
2019-04-06T22:57:01.071Z,83.58
2019-04-06T22:59:31.484Z,83.88
2019-04-06T23:02:01.985Z,83.73
2019-04-06T23:04:47.803Z,83.07
2019-04-06T23:07:15.360Z,83.27
2019-04-06T23:09:46.579Z,83.61
2019-04-06T23:12:17.074Z,83.17
2019-04-06T23:14:47.768Z,83.08
2019-04-06T23:17:18.311Z,83.41
2019-04-06T23:19:48.705Z,83.08
2019-04-06T23:22:20.704Z,83.26
2019-04-06T23:24:51.360Z,83.41
2019-04-06T23:28:00.055Z,83.76
2019-04-06T23:30:30.636Z,84.03
2019-04-06T23:33:01.638Z,83.47
2019-04-06T23:35:32.224Z,83.73
2019-04-06T23:38:02.931Z,83.36
2019-04-06T23:40:33.870Z,83.59
2019-04-06T23:43:04.551Z,83.84
2019-04-06T23:45:35.577Z,83.58
2019-04-06T23:48:06.038Z,83.65
2019-04-06T23:50:36.518Z,84.00
2019-04-06T23:53:07.019Z,83.93
2019-04-06T23:55:37.649Z,83.74
2019-04-06T23:58:08.427Z,83.37
